Time;durP1;ratioP1;P1;durP2;ratioP2;P2;SDS_P1;SDS_P2;PMS_P1;PMS_P2;Temp;Humidity;BMP_temperature;BMP_pressure;BME280_temperature;BME280_humidity;BME280_pressure;Samples;Min_cycle;Max_cycle;Signal;HPM_P1;HPM_P2
2022/05/31 00:02:02;;;;;;;0.00;0.00;;;16.70;74.00;;;;;;4210248;28;20475;-65
2022/05/31 00:04:26;;;;;;;0.00;0.00;;;16.70;74.00;;;;;;4210721;28;20129;-64
2022/05/31 00:06:48;;;;;;;0.00;0.00;;;16.70;75.00;;;;;;4210336;28;20062;-64
2022/05/31 00:09:10;;;;;;;0.80;0.80;;;16.70;74.10;;;;;;4210335;28;20039;-65
2022/05/31 00:11:32;;;;;;;0.00;0.00;;;16.60;74.00;;;;;;4210429;28;20052;-65
2022/05/31 00:13:55;;;;;;;0.00;0.00;;;16.60;74.10;;;;;;4210295;28;20124;-64
2022/05/31 00:16:17;;;;;;;0.00;0.00;;;16.60;74.10;;;;;;4210024;28;20131;-63
2022/05/31 00:18:39;;;;;;;0.00;0.00;;;16.60;74.00;;;;;;4209692;28;20059;-63
2022/05/31 00:21:03;;;;;;;0.00;0.00;;;16.60;74.00;;;;;;4210265;28;20055;-64
2022/05/31 00:23:25;;;;;;;0.00;0.00;;;16.60;74.10;;;;;;4209901;28;20102;-64
2022/05/31 00:25:47;;;;;;;0.00;0.00;;;16.60;74.00;;;;;;4209796;28;20136;-66
2022/05/31 00:28:09;;;;;;;0.00;0.00;;;16.60;74.10;;;;;;4210018;28;20126;-68
2022/05/31 00:30:31;;;;;;;1.40;0.45;;;16.60;75.00;;;;;;4208207;28;20094;-66
2022/05/31 00:32:54;;;;;;;0.13;0.13;;;16.60;74.20;;;;;;4207829;28;20077;-64
2022/05/31 00:35:19;;;;;;;0.00;0.00;;;16.60;74.20;;;;;;4209832;28;20131;-64
2022/05/31 00:37:43;;;;;;;0.00;0.00;;;16.60;74.30;;;;;;4208282;28;20105;-64
2022/05/31 00:40:06;;;;;;;0.00;0.00;;;16.60;74.30;;;;;;4209815;28;20513;-64
2022/05/31 00:42:28;;;;;;;0.22;0.22;;;16.60;74.30;;;;;;4209049;28;20079;-63
2022/05/31 00:44:51;;;;;;;0.00;0.00;;;16.60;74.30;;;;;;4207232;28;20054;-63
2022/05/31 00:47:15;;;;;;;0.17;0.17;;;16.60;74.30;;;;;;4209891;28;20048;-63
2022/05/31 00:49:42;;;;;;;0.00;0.00;;;16.60;74.40;;;;;;4209994;28;20106;-64
2022/05/31 00:52:08;;;;;;;0.00;0.00;;;16.50;74.40;;;;;;4209536;28;20047;-64
2022/05/31 00:54:34;;;;;;;0.00;0.00;;;16.60;74.40;;;;;;4209837;28;20113;-64
2022/05/31 00:56:58;;;;;;;0.52;0.20;;;16.60;74.40;;;;;;4209319;28;20396;-64
2022/05/31 00:59:23;;;;;;;0.10;0.10;;;16.50;74.40;;;;;;4209659;28;20051;-64
2022/05/31 01:01:51;;;;;;;0.00;0.00;;;16.50;74.40;;;;;;4209769;28;20050;-63
2022/05/31 01:04:14;;;;;;;0.00;0.00;;;16.50;75.30;;;;;;4208058;28;20079;-63
2022/05/31 01:06:36;;;;;;;0.00;0.00;;;16.50;74.40;;;;;;4209671;28;20048;-63
2022/05/31 01:08:59;;;;;;;0.00;0.00;;;16.50;74.50;;;;;;4208191;28;20631;-64
2022/05/31 01:11:31;;;;;;;0.05;0.05;;;16.50;74.50;;;;;;4207293;28;20097;-64
2022/05/31 01:14:10;;;;;;;0.00;0.00;;;16.50;74.50;;;;;;4209028;28;20067;-64
2022/05/31 01:17:05;;;;;;;0.35;0.35;;;16.50;74.60;;;;;;4145536;28;20061;-64
2022/05/31 01:20:00;;;;;;;0.00;0.00;;;16.50;74.60;;;;;;4195181;28;20064;-64
2022/05/31 01:22:44;;;;;;;0.00;0.00;;;16.50;74.60;;;;;;4190579;28;20182;-64
2022/05/31 01:25:19;;;;;;;0.00;0.00;;;16.50;75.50;;;;;;4191275;28;20146;-63
2022/05/31 01:27:47;;;;;;;0.00;0.00;;;16.50;74.70;;;;;;4207909;28;20048;-64
2022/05/31 01:30:11;;;;;;;0.00;0.00;;;16.50;74.70;;;;;;4208245;28;20135;-64
2022/05/31 01:32:34;;;;;;;0.00;0.00;;;16.50;74.70;;;;;;4209204;28;20131;-63
2022/05/31 01:35:03;;;;;;;0.00;0.00;;;16.50;74.80;;;;;;4192302;28;20063;-63
2022/05/31 01:37:33;;;;;;;0.05;0.05;;;16.50;74.70;;;;;;4190242;28;20155;-63
2022/05/31 01:40:00;;;;;;;0.00;0.00;;;16.50;74.80;;;;;;4191813;28;20499;-64
2022/05/31 01:42:27;;;;;;;0.10;0.10;;;16.50;74.80;;;;;;4192617;28;20126;-63
2022/05/31 01:44:53;;;;;;;0.00;0.00;;;16.40;74.80;;;;;;4190384;28;20045;-63
2022/05/31 01:47:16;;;;;;;0.00;0.00;;;16.40;74.80;;;;;;4207789;28;20149;-63
2022/05/31 01:49:41;;;;;;;0.00;0.00;;;16.40;74.80;;;;;;4208969;28;20047;-64
2022/05/31 01:52:06;;;;;;;0.00;0.00;;;16.50;74.90;;;;;;4208514;28;20121;-63
2022/05/31 01:54:28;;;;;;;0.00;0.00;;;16.40;74.80;;;;;;4208694;28;20097;-63
2022/05/31 01:56:58;;;;;;;0.00;0.00;;;16.40;74.80;;;;;;4207190;28;20546;-63
2022/05/31 01:59:20;;;;;;;0.00;0.00;;;16.40;74.90;;;;;;4206933;28;20459;-63
2022/05/31 02:01:43;;;;;;;0.00;0.00;;;16.40;74.90;;;;;;4192235;28;20553;-63
2022/05/31 02:04:06;;;;;;;0.00;0.00;;;16.40;74.90;;;;;;4192369;28;20043;-63
2022/05/31 02:06:31;;;;;;;1.10;1.10;;;16.40;74.90;;;;;;4190755;28;20058;-63
2022/05/31 02:08:53;;;;;;;0.13;0.13;;;16.40;74.90;;;;;;4190997;28;20049;-64
2022/05/31 02:11:15;;;;;;;0.00;0.00;;;16.40;75.00;;;;;;4192187;28;20071;-63
2022/05/31 02:13:39;;;;;;;0.00;0.00;;;16.40;75.00;;;;;;4190693;28;20114;-64
2022/05/31 02:16:04;;;;;;;0.00;0.00;;;16.40;75.00;;;;;;4190866;28;20137;-64
2022/05/31 02:21:37;;;;;;;0.00;0.00;;;16.40;75.40;;;;;;4177422;28;20112;-63
2022/05/31 02:24:00;;;;;;;0.00;0.00;;;16.40;74.90;;;;;;4190257;28;20068;-63
2022/05/31 02:26:23;;;;;;;0.00;0.00;;;16.40;74.80;;;;;;4190236;28;20102;-63
2022/05/31 02:28:46;;;;;;;0.00;0.00;;;16.40;74.80;;;;;;4189898;28;20051;-63
2022/05/31 02:31:09;;;;;;;0.00;0.00;;;16.40;74.80;;;;;;4190204;28;20048;-64
2022/05/31 02:33:31;;;;;;;0.00;0.00;;;16.40;74.80;;;;;;4191084;28;20048;-63
2022/05/31 02:35:53;;;;;;;0.10;0.10;;;16.40;74.90;;;;;;4192030;28;20502;-63
2022/05/31 02:38:15;;;;;;;0.00;0.00;;;16.40;74.80;;;;;;4206100;28;20542;-63
2022/05/31 02:40:37;;;;;;;0.00;0.00;;;16.40;74.90;;;;;;4190316;28;20499;-64
2022/05/31 02:42:59;;;;;;;0.00;0.00;;;16.40;74.90;;;;;;4193326;28;20526;-64
2022/05/31 02:45:23;;;;;;;0.00;0.00;;;16.40;75.00;;;;;;4190398;28;20483;-64
2022/05/31 02:47:45;;;;;;;0.00;0.00;;;16.30;74.90;;;;;;4190499;28;20045;-64
2022/05/31 02:50:08;;;;;;;1.35;0.55;;;16.30;74.90;;;;;;4191700;28;20047;-64
2022/05/31 02:52:32;;;;;;;0.00;0.00;;;16.40;75.00;;;;;;4207170;28;20067;-63
2022/05/31 02:54:54;;;;;;;0.00;0.00;;;16.40;75.00;;;;;;4208808;28;20062;-64
2022/05/31 02:57:17;;;;;;;0.63;0.32;;;16.30;74.90;;;;;;4208271;28;20143;-64
2022/05/31 02:59:58;;;;;;;0.00;0.00;;;16.30;75.00;;;;;;4208150;28;20048;-64
2022/05/31 03:02:40;;;;;;;0.00;0.00;;;16.30;74.90;;;;;;4208324;28;20482;-64
2022/05/31 03:05:25;;;;;;;0.03;0.03;;;16.30;74.90;;;;;;4192530;28;20063;-64
2022/05/31 03:08:06;;;;;;;0.20;0.20;;;16.30;74.90;;;;;;4211234;28;20110;-64
2022/05/31 03:10:46;;;;;;;0.00;0.00;;;16.30;74.90;;;;;;4209816;28;20398;-64
2022/05/31 03:13:10;;;;;;;0.00;0.00;;;16.30;75.00;;;;;;4209890;28;20591;-65
2022/05/31 03:15:35;;;;;;;0.00;0.00;;;16.30;75.00;;;;;;4209733;28;20172;-65
2022/05/31 03:18:04;;;;;;;0.00;0.00;;;16.30;75.00;;;;;;4211618;28;20086;-65
2022/05/31 03:20:30;;;;;;;0.00;0.00;;;16.30;75.10;;;;;;4209137;28;20101;-65
2022/05/31 03:23:01;;;;;;;0.00;0.00;;;16.30;75.20;;;;;;4209753;28;20050;-65
2022/05/31 03:25:28;;;;;;;0.00;0.00;;;16.30;75.10;;;;;;4209505;28;20032;-65
2022/05/31 03:27:52;;;;;;;0.22;0.22;;;16.30;75.10;;;;;;4210826;28;20114;-65
2022/05/31 03:30:15;;;;;;;0.00;0.00;;;16.30;75.20;;;;;;4209704;28;20051;-66
2022/05/31 03:32:38;;;;;;;0.20;0.20;;;16.20;75.10;;;;;;4209465;28;20097;-65
2022/05/31 03:35:02;;;;;;;0.00;0.00;;;16.20;75.00;;;;;;4211048;28;20048;-65
2022/05/31 03:37:24;;;;;;;0.00;0.00;;;16.20;75.00;;;;;;4209328;28;20143;-65
2022/05/31 03:39:47;;;;;;;0.00;0.00;;;16.30;75.20;;;;;;4208996;28;20094;-65
2022/05/31 03:42:10;;;;;;;0.00;0.00;;;16.20;75.10;;;;;;4209191;28;20087;-65
2022/05/31 03:44:32;;;;;;;0.00;0.00;;;16.20;75.10;;;;;;4210520;28;20391;-65
2022/05/31 03:46:54;;;;;;;0.60;0.60;;;16.20;75.20;;;;;;4211206;28;20051;-65
2022/05/31 03:49:40;;;;;;;0.10;0.10;;;16.20;75.20;;;;;;4181707;28;20132;-65
2022/05/31 03:52:05;;;;;;;0.00;0.00;;;16.20;75.20;;;;;;4192452;28;20048;-65
2022/05/31 03:54:36;;;;;;;0.00;0.00;;;16.20;75.20;;;;;;4191928;28;20110;-65
2022/05/31 03:56:58;;;;;;;0.00;0.00;;;16.20;75.20;;;;;;4193658;28;20052;-65
2022/05/31 03:59:20;;;;;;;0.00;0.00;;;16.20;75.30;;;;;;4192322;28;20047;-64
2022/05/31 04:01:42;;;;;;;0.00;0.00;;;16.20;76.10;;;;;;4192524;28;20055;-64
2022/05/31 04:04:05;;;;;;;0.00;0.00;;;16.20;76.20;;;;;;4192527;28;20098;-64
2022/05/31 04:06:27;;;;;;;0.00;0.00;;;16.20;75.30;;;;;;4209079;28;20056;-64
2022/05/31 04:08:51;;;;;;;0.00;0.00;;;16.20;75.30;;;;;;4209250;28;20044;-64
2022/05/31 04:11:14;;;;;;;0.00;0.00;;;16.20;75.30;;;;;;4195408;28;20098;-64
2022/05/31 04:13:36;;;;;;;0.00;0.00;;;16.20;75.30;;;;;;4191946;28;20522;-64
2022/05/31 04:16:35;;;;;;;0.20;0.20;;;16.20;75.50;;;;;;4191749;28;20044;-64
2022/05/31 04:18:58;;;;;;;0.00;0.00;;;16.20;75.40;;;;;;4192004;28;20139;-64
2022/05/31 04:21:21;;;;;;;0.00;0.00;;;16.20;75.30;;;;;;4192038;28;20059;-64
2022/05/31 04:23:59;;;;;;;0.55;0.55;;;16.20;75.30;;;;;;4193222;28;20150;-64
2022/05/31 04:26:40;;;;;;;0.00;0.00;;;16.20;75.30;;;;;;4195761;28;20154;-64
2022/05/31 04:29:21;;;;;;;0.00;0.00;;;16.20;75.30;;;;;;4193386;28;20036;-65
2022/05/31 04:32:01;;;;;;;0.00;0.00;;;16.20;75.30;;;;;;4193246;28;20110;-64
2022/05/31 04:34:47;;;;;;;0.00;0.00;;;16.10;75.20;;;;;;4185364;28;20490;-64
2022/05/31 04:37:09;;;;;;;0.00;0.00;;;16.10;75.20;;;;;;4208481;28;20223;-64
2022/05/31 04:39:50;;;;;;;0.00;0.00;;;16.10;75.30;;;;;;4209575;28;20043;-64
2022/05/31 04:42:37;;;;;;;0.00;0.00;;;16.10;75.20;;;;;;4207501;28;20290;-64
2022/05/31 04:45:01;;;;;;;0.00;0.00;;;16.10;75.30;;;;;;4208844;28;20110;-65
2022/05/31 04:47:23;;;;;;;0.00;0.00;;;16.10;75.20;;;;;;4209840;28;20093;-64
2022/05/31 04:49:49;;;;;;;0.00;0.00;;;16.10;75.30;;;;;;4208189;28;20068;-64
2022/05/31 04:52:12;;;;;;;0.00;0.00;;;16.10;75.20;;;;;;4208125;28;20127;-65
2022/05/31 04:54:41;;;;;;;0.08;0.08;;;16.10;74.80;;;;;;4207830;28;20048;-65
2022/05/31 04:57:17;;;;;;;0.00;0.00;;;16.10;74.90;;;;;;4207652;28;20056;-65
2022/05/31 04:59:40;;;;;;;0.00;0.00;;;16.10;75.80;;;;;;4209550;28;20101;-65
2022/05/31 05:02:03;;;;;;;0.00;0.00;;;16.10;74.80;;;;;;4209228;28;20063;-65
2022/05/31 05:04:32;;;;;;;0.03;0.03;;;16.10;74.90;;;;;;4190954;28;20056;-64
2022/05/31 05:06:55;;;;;;;0.90;0.90;;;16.00;74.60;;;;;;4194997;28;20048;-65
2022/05/31 05:09:17;;;;;;;0.00;0.00;;;16.10;74.80;;;;;;4192268;28;20048;-64
2022/05/31 05:12:11;;;;;;;0.03;0.03;;;16.00;74.70;;;;;;4191202;28;20044;-64
2022/05/31 05:14:38;;;;;;;0.00;0.00;;;16.00;74.70;;;;;;4191137;28;20068;-65
2022/05/31 05:17:06;;;;;;;1.10;1.10;;;16.00;74.90;;;;;;4192461;28;20063;-65
2022/05/31 05:19:34;;;;;;;0.00;0.00;;;16.00;75.00;;;;;;4192279;28;20048;-65
2022/05/31 05:21:56;;;;;;;0.00;0.00;;;16.00;75.10;;;;;;4207839;28;20075;-65
2022/05/31 05:24:19;;;;;;;0.68;0.68;;;16.00;75.10;;;;;;4207982;28;20063;-63
2022/05/31 05:26:58;;;;;;;0.00;0.00;;;16.00;75.30;;;;;;4190912;28;20158;-65
2022/05/31 05:32:31;;;;;;;0.00;0.00;;;16.10;76.00;;;;;;4207674;28;20052;-65
2022/05/31 05:35:05;;;;;;;0.00;0.00;;;16.10;75.90;;;;;;4190846;28;20048;-65
2022/05/31 05:37:28;;;;;;;0.00;0.00;;;16.10;75.90;;;;;;4191059;28;20473;-67
2022/05/31 05:39:51;;;;;;;0.10;0.10;;;16.10;76.80;;;;;;4190940;28;20435;-66
2022/05/31 05:42:29;;;;;;;0.00;0.00;;;16.20;76.10;;;;;;4192329;28;20056;-66
2022/05/31 05:45:20;;;;;;;0.40;0.40;;;16.20;76.00;;;;;;4191604;28;20049;-66
2022/05/31 05:47:44;;;;;;;0.00;0.00;;;16.20;75.90;;;;;;4190767;28;20567;-67
2022/05/31 05:50:08;;;;;;;1.00;0.65;;;16.20;75.70;;;;;;4191846;28;20044;-65
2022/05/31 05:52:49;;;;;;;0.00;0.00;;;16.20;75.60;;;;;;4191853;28;20484;-65
2022/05/31 05:55:30;;;;;;;0.00;0.00;;;16.20;76.50;;;;;;4191928;28;20055;-65
2022/05/31 05:58:10;;;;;;;0.00;0.00;;;16.20;75.40;;;;;;4192024;28;20125;-66
2022/05/31 06:00:54;;;;;;;0.15;0.15;;;16.20;75.50;;;;;;4190647;28;20125;-66
2022/05/31 06:03:28;;;;;;;0.00;0.00;;;16.20;75.40;;;;;;4190367;28;20131;-66
2022/05/31 06:05:58;;;;;;;0.43;0.43;;;16.20;75.30;;;;;;4190562;28;20058;-65
2022/05/31 06:08:27;;;;;;;5.72;1.38;;;16.20;75.30;;;;;;4190277;28;20574;-65
2022/05/31 06:11:02;;;;;;;0.03;0.03;;;16.20;75.20;;;;;;4192324;28;20563;-65
2022/05/31 06:13:30;;;;;;;0.00;0.00;;;16.20;75.10;;;;;;4189862;28;20556;-68
2022/05/31 06:15:57;;;;;;;0.05;0.05;;;16.20;75.20;;;;;;4191920;28;20067;-69
2022/05/31 06:18:27;;;;;;;0.00;0.00;;;16.20;75.30;;;;;;4190134;28;20080;-68
2022/05/31 06:20:52;;;;;;;0.00;0.00;;;16.20;75.30;;;;;;4190619;28;20044;-67
2022/05/31 06:23:15;;;;;;;0.00;0.00;;;16.20;75.20;;;;;;4192075;28;20372;-67
2022/05/31 06:25:38;;;;;;;0.65;0.65;;;16.20;75.10;;;;;;4190232;28;20068;-67
2022/05/31 06:28:22;;;;;;;0.20;0.20;;;16.20;75.10;;;;;;4189914;28;20045;-66
2022/05/31 06:30:44;;;;;;;0.00;0.00;;;16.20;75.00;;;;;;4190667;28;20052;-66
2022/05/31 06:33:07;;;;;;;0.00;0.00;;;16.20;75.00;;;;;;4190805;28;20542;-66
2022/05/31 06:35:31;;;;;;;0.00;0.00;;;16.20;75.00;;;;;;4207225;28;20143;-66
2022/05/31 06:37:57;;;;;;;0.00;0.00;;;16.20;75.90;;;;;;4207149;28;20174;-67
2022/05/31 06:40:19;;;;;;;0.00;0.00;;;16.30;75.10;;;;;;4208496;28;20048;-68
2022/05/31 06:43:07;;;;;;;0.38;0.38;;;16.30;75.50;;;;;;4205900;28;20044;-67
2022/05/31 06:45:45;;;;;;;0.65;0.65;;;16.30;76.10;;;;;;4211642;28;20044;-67
2022/05/31 06:48:25;;;;;;;0.00;0.00;;;16.40;76.20;;;;;;4199067;28;20072;-68
2022/05/31 06:51:10;;;;;;;0.63;0.63;;;16.40;75.80;;;;;;4194816;28;20054;-67
2022/05/31 06:56:50;;;;;;;0.00;0.00;;;16.40;75.40;;;;;;4189447;28;20040;-67
2022/05/31 06:59:29;;;;;;;0.55;0.55;;;16.40;75.40;;;;;;4209630;28;20075;-69
2022/05/31 07:01:53;;;;;;;0.30;0.20;;;16.40;75.50;;;;;;4210284;28;20102;-68
2022/05/31 07:04:16;;;;;;;0.00;0.00;;;16.40;75.70;;;;;;4210401;28;20048;-67
2022/05/31 07:06:39;;;;;;;0.00;0.00;;;16.40;75.80;;;;;;4211297;28;20063;-68
2022/05/31 07:09:20;;;;;;;0.00;0.00;;;16.40;75.90;;;;;;4194484;28;20053;-68
2022/05/31 07:11:42;;;;;;;0.00;0.00;;;16.40;75.90;;;;;;4209769;28;20056;-67
2022/05/31 07:14:39;;;;;;;0.00;0.00;;;16.40;75.90;;;;;;4142799;28;20144;-68
2022/05/31 07:17:23;;;;;;;0.00;0.00;;;16.40;75.70;;;;;;4184292;28;20052;-67
2022/05/31 07:19:52;;;;;;;0.00;0.00;;;16.40;75.60;;;;;;4191057;28;20055;-67
2022/05/31 07:22:29;;;;;;;0.32;0.32;;;16.50;75.50;;;;;;4192561;28;20495;-68
2022/05/31 07:25:27;;;;;;;0.00;0.00;;;16.50;75.40;;;;;;4176786;28;20055;-67
2022/05/31 07:27:59;;;;;;;0.00;0.00;;;16.40;75.20;;;;;;4207072;28;20040;-68
2022/05/31 07:30:22;;;;;;;0.00;0.00;;;16.40;75.10;;;;;;4192879;28;20036;-68
2022/05/31 07:32:46;;;;;;;0.00;0.00;;;16.50;75.20;;;;;;4192633;28;20053;-67
2022/05/31 07:35:29;;;;;;;0.10;0.10;;;16.50;75.20;;;;;;4192689;28;20411;-68
2022/05/31 07:37:54;;;;;;;0.00;0.00;;;16.50;75.20;;;;;;4207180;28;20047;-67
2022/05/31 07:40:19;;;;;;;0.03;0.03;;;16.50;75.20;;;;;;4192726;28;20488;-68
2022/05/31 07:42:41;;;;;;;0.00;0.00;;;16.60;75.20;;;;;;4193081;28;20222;-68
2022/05/31 07:45:05;;;;;;;0.00;0.00;;;16.60;75.10;;;;;;4203640;28;20117;-68
2022/05/31 07:47:27;;;;;;;0.00;0.00;;;16.60;75.00;;;;;;4210749;28;20438;-68
2022/05/31 07:49:49;;;;;;;0.00;0.00;;;16.60;74.70;;;;;;4208918;28;20102;-67
2022/05/31 07:52:36;;;;;;;0.00;0.00;;;16.70;74.60;;;;;;4209142;28;20047;-68
2022/05/31 07:55:23;;;;;;;0.20;0.20;;;16.80;74.40;;;;;;4210191;28;20491;-65
2022/05/31 08:00:50;;;;;;;0.00;0.00;;;16.80;74.10;;;;;;4209744;28;20134;-63
2022/05/31 08:03:12;;;;;;;0.00;0.00;;;16.90;73.90;;;;;;4192265;28;20184;-64
2022/05/31 08:05:37;;;;;;;0.00;0.00;;;16.90;73.70;;;;;;4210173;28;20055;-64
2022/05/31 08:07:59;;;;;;;0.20;0.20;;;16.90;74.40;;;;;;4209318;28;20506;-63
2022/05/31 08:10:42;;;;;;;1.15;0.63;;;16.90;73.30;;;;;;4210008;28;20051;-64
2022/05/31 08:13:05;;;;;;;0.00;0.00;;;17.00;73.20;;;;;;4210711;28;20047;-65
2022/05/31 08:15:27;;;;;;;0.00;0.00;;;17.00;73.00;;;;;;4196062;28;20090;-65
2022/05/31 08:17:49;;;;;;;0.00;0.00;;;17.10;72.80;;;;;;4193335;28;20052;-64
2022/05/31 08:20:11;;;;;;;0.00;0.00;;;17.10;72.60;;;;;;4193194;28;20051;-64
2022/05/31 08:22:33;;;;;;;0.00;0.00;;;17.10;72.30;;;;;;4210258;28;20051;-64
2022/05/31 08:24:55;;;;;;;0.00;0.00;;;17.10;72.10;;;;;;4210108;28;20525;-64
2022/05/31 08:27:21;;;;;;;0.15;0.15;;;17.20;71.90;;;;;;4208542;28;20402;-64
2022/05/31 08:29:43;;;;;;;0.68;0.68;;;17.20;71.90;;;;;;4210431;28;20459;-64
2022/05/31 08:32:05;;;;;;;0.00;0.00;;;17.20;71.60;;;;;;4209757;28;20151;-64
2022/05/31 08:34:29;;;;;;;0.00;0.00;;;17.20;71.40;;;;;;4209777;28;20456;-64
2022/05/31 08:36:51;;;;;;;0.00;0.00;;;17.20;71.30;;;;;;4193150;28;20052;-64
2022/05/31 08:39:13;;;;;;;0.00;0.00;;;17.30;71.30;;;;;;4193502;28;20147;-64
2022/05/31 08:41:44;;;;;;;0.00;0.00;;;17.30;71.10;;;;;;4193217;28;20798;-63
2022/05/31 08:44:19;;;;;;;0.08;0.08;;;17.30;71.10;;;;;;4192794;28;20050;-64
2022/05/31 08:46:53;;;;;;;0.00;0.00;;;17.30;70.90;;;;;;4192999;28;20497;-64
2022/05/31 08:49:22;;;;;;;0.20;0.20;;;17.30;70.80;;;;;;4192959;28;20044;-64
2022/05/31 08:52:03;;;;;;;0.00;0.00;;;17.30;70.60;;;;;;4192742;28;20048;-64
2022/05/31 08:57:20;;;;;;;0.55;0.55;;;17.40;70.50;;;;;;4208274;28;20040;-64
2022/05/31 08:59:50;;;;;;;0.57;0.57;;;17.50;70.10;;;;;;4208239;28;20512;-64
2022/05/31 09:02:19;;;;;;;0.00;0.00;;;17.50;69.60;;;;;;4195110;28;20375;-64
2022/05/31 09:05:03;;;;;;;0.00;0.00;;;17.50;69.50;;;;;;4192920;28;20537;-64
2022/05/31 09:07:28;;;;;;;0.43;0.43;;;17.50;69.50;;;;;;4194379;28;20048;-65
2022/05/31 09:09:56;;;;;;;0.08;0.08;;;17.50;69.40;;;;;;4192570;28;20055;-64
2022/05/31 09:12:29;;;;;;;4.68;0.90;;;17.50;69.40;;;;;;4192047;28;20052;-65
2022/05/31 09:15:01;;;;;;;0.00;0.00;;;17.50;69.30;;;;;;4192336;28;20127;-66
2022/05/31 09:17:30;;;;;;;0.00;0.00;;;17.50;69.30;;;;;;4192511;28;20102;-65
2022/05/31 09:19:59;;;;;;;0.00;0.00;;;17.50;69.20;;;;;;4192797;28;20060;-64
2022/05/31 09:22:21;;;;;;;1.05;0.57;;;17.50;69.10;;;;;;4192456;28;20075;-64
2022/05/31 09:24:45;;;;;;;0.00;0.00;;;17.50;69.00;;;;;;4192714;28;20048;-64
2022/05/31 09:27:09;;;;;;;0.00;0.00;;;17.50;68.80;;;;;;4192129;28;20118;-65
2022/05/31 09:29:42;;;;;;;0.00;0.00;;;17.60;68.50;;;;;;4192705;28;20131;-64
2022/05/31 09:32:14;;;;;;;0.00;0.00;;;17.60;68.50;;;;;;4192149;28;20140;-65
2022/05/31 09:35:00;;;;;;;0.05;0.05;;;17.60;68.40;;;;;;4190473;28;20049;-65
2022/05/31 09:37:37;;;;;;;0.00;0.00;;;17.70;68.30;;;;;;4194793;28;20050;-65
2022/05/31 09:40:13;;;;;;;0.00;0.00;;;17.70;68.20;;;;;;4190712;28;20143;-65
2022/05/31 09:42:41;;;;;;;0.00;0.00;;;17.70;68.10;;;;;;4192016;28;20751;-64
2022/05/31 09:45:08;;;;;;;0.00;0.00;;;17.70;68.10;;;;;;4191915;28;20159;-65
2022/05/31 09:47:32;;;;;;;0.10;0.10;;;17.70;68.10;;;;;;4195112;28;20044;-65
2022/05/31 09:49:55;;;;;;;0.05;0.05;;;17.60;68.00;;;;;;4195721;28;20102;-65
2022/05/31 09:52:21;;;;;;;0.00;0.00;;;17.70;68.00;;;;;;4192208;28;20047;-65
2022/05/31 09:58:21;;;;;;;0.00;0.00;;;17.70;68.00;;;;;;4208341;28;20048;-65
2022/05/31 10:01:05;;;;;;;0.00;0.00;;;17.60;67.80;;;;;;4192204;28;20037;-63
2022/05/31 10:03:37;;;;;;;0.10;0.10;;;17.70;67.80;;;;;;4190553;28;20055;-64
2022/05/31 10:06:07;;;;;;;0.00;0.00;;;17.70;67.50;;;;;;4204851;28;20051;-64
2022/05/31 10:08:32;;;;;;;0.00;0.00;;;17.70;67.50;;;;;;4208588;28;20094;-64
2022/05/31 10:10:54;;;;;;;0.00;0.00;;;17.70;67.70;;;;;;4208886;28;20440;-64
2022/05/31 10:13:35;;;;;;;0.00;0.00;;;17.70;67.40;;;;;;4208973;28;20059;-64
2022/05/31 10:16:18;;;;;;;0.00;0.00;;;17.80;67.40;;;;;;4197865;28;20052;-65
2022/05/31 10:18:51;;;;;;;0.00;0.00;;;17.80;67.20;;;;;;4195129;28;20079;-64
2022/05/31 10:21:13;;;;;;;1.45;0.55;;;17.80;67.10;;;;;;4210082;28;20072;-65
2022/05/31 10:23:37;;;;;;;0.00;0.00;;;17.80;66.90;;;;;;4208330;28;20497;-65
2022/05/31 10:26:25;;;;;;;0.00;0.00;;;17.80;66.70;;;;;;4196707;28;20126;-64
2022/05/31 10:29:16;;;;;;;0.00;0.00;;;17.80;66.70;;;;;;4211974;28;20123;-65
2022/05/31 10:31:50;;;;;;;0.20;0.20;;;17.80;66.60;;;;;;4193729;28;20072;-65
2022/05/31 10:34:40;;;;;;;0.00;0.00;;;17.80;66.50;;;;;;4194373;28;20052;-65
2022/05/31 10:37:04;;;;;;;0.00;0.00;;;17.80;66.50;;;;;;4190932;28;20048;-65
2022/05/31 10:39:29;;;;;;;0.10;0.10;;;17.80;66.40;;;;;;4208052;28;20155;-64
2022/05/31 10:41:54;;;;;;;0.00;0.00;;;17.80;66.30;;;;;;4211491;28;20478;-66
2022/05/31 10:44:23;;;;;;;0.00;0.00;;;17.80;66.30;;;;;;4200788;28;20071;-64
2022/05/31 10:46:48;;;;;;;0.00;0.00;;;17.80;66.30;;;;;;4195017;28;20048;-64
2022/05/31 10:49:16;;;;;;;0.00;0.00;;;17.80;66.20;;;;;;4194899;28;20106;-64
2022/05/31 10:51:53;;;;;;;0.00;0.00;;;17.80;66.10;;;;;;4194677;28;20043;-63
2022/05/31 10:54:32;;;;;;;0.00;0.00;;;17.80;66.10;;;;;;4192992;28;20045;-64
2022/05/31 10:57:06;;;;;;;0.00;0.00;;;17.80;66.00;;;;;;4193587;28;20102;-65
2022/05/31 10:59:35;;;;;;;0.00;0.00;;;17.80;65.90;;;;;;4211188;28;20048;-65
2022/05/31 11:02:18;;;;;;;0.00;0.00;;;17.80;65.90;;;;;;4211949;28;20052;-64
2022/05/31 11:04:56;;;;;;;0.20;0.20;;;17.80;65.90;;;;;;4211399;28;20048;-64
2022/05/31 11:07:32;;;;;;;0.00;0.00;;;17.80;65.90;;;;;;4211487;28;20471;-64
2022/05/31 11:12:56;;;;;;;0.25;0.25;;;17.90;65.80;;;;;;4208438;28;20071;-64
2022/05/31 11:15:33;;;;;;;0.00;0.00;;;17.90;65.70;;;;;;4198188;28;20486;-64
2022/05/31 11:18:25;;;;;;;0.20;0.20;;;17.90;65.60;;;;;;4194408;28;20408;-66
2022/05/31 11:20:53;;;;;;;0.00;0.00;;;17.90;65.50;;;;;;4194388;28;20060;-65
2022/05/31 11:23:31;;;;;;;0.00;0.00;;;17.90;65.40;;;;;;4193826;28;20040;-66
2022/05/31 11:26:09;;;;;;;0.00;0.00;;;17.90;65.30;;;;;;4176140;28;20102;-64
2022/05/31 11:29:07;;;;;;;0.00;0.00;;;18.00;65.20;;;;;;4192970;28;20415;-65
2022/05/31 11:31:42;;;;;;;0.00;0.00;;;18.00;65.00;;;;;;4193935;28;20107;-64
2022/05/31 11:34:20;;;;;;;0.00;0.00;;;18.00;64.90;;;;;;4207977;28;20093;-64
2022/05/31 11:36:54;;;;;;;0.35;0.35;;;18.10;64.70;;;;;;4210526;28;20105;-64
2022/05/31 11:39:32;;;;;;;0.00;0.00;;;18.10;64.60;;;;;;4194404;28;20464;-65
2022/05/31 11:42:04;;;;;;;0.00;0.00;;;18.10;64.50;;;;;;4194240;28;20044;-64
2022/05/31 11:44:52;;;;;;;0.20;0.20;;;18.10;64.10;;;;;;4194882;28;20638;-64
2022/05/31 11:47:35;;;;;;;0.00;0.00;;;18.20;65.00;;;;;;4209535;28;20085;-64
2022/05/31 11:50:07;;;;;;;0.00;0.00;;;18.20;63.90;;;;;;4193341;28;20048;-65
2022/05/31 11:52:44;;;;;;;0.00;0.00;;;18.20;63.80;;;;;;4193752;28;20407;-64
2022/05/31 11:55:28;;;;;;;0.00;0.00;;;18.30;64.50;;;;;;4194178;28;20063;-66
2022/05/31 11:58:05;;;;;;;1.08;1.08;;;18.30;63.30;;;;;;4193981;28;20074;-65
2022/05/31 12:00:40;;;;;;;0.10;0.10;;;18.30;63.20;;;;;;4192648;28;20044;-65
2022/05/31 12:03:10;;;;;;;0.00;0.00;;;18.30;62.90;;;;;;4193501;28;20051;-65
2022/05/31 12:05:38;;;;;;;0.00;0.00;;;18.30;62.60;;;;;;4177033;28;20064;-65
2022/05/31 12:08:12;;;;;;;0.25;0.25;;;18.30;62.50;;;;;;4176783;28;20064;-64
2022/05/31 12:10:42;;;;;;;0.00;0.00;;;18.40;62.60;;;;;;4175633;28;20075;-64
2022/05/31 12:13:07;;;;;;;0.00;0.00;;;18.40;62.60;;;;;;4187268;28;20468;-65
2022/05/31 12:15:32;;;;;;;0.00;0.00;;;18.40;62.60;;;;;;4191083;28;20045;-63
2022/05/31 12:18:00;;;;;;;0.00;0.00;;;18.40;62.20;;;;;;4210396;28;20040;-64
2022/05/31 12:20:26;;;;;;;0.00;0.00;;;18.50;62.10;;;;;;4209624;28;20079;-64
2022/05/31 12:22:53;;;;;;;0.00;0.00;;;18.50;61.90;;;;;;4210091;28;20097;-64
2022/05/31 12:25:21;;;;;;;1.55;1.45;;;18.50;62.50;;;;;;4210212;28;20035;-64
2022/05/31 12:27:48;;;;;;;0.00;0.00;;;18.50;61.30;;;;;;4210366;28;20112;-64
2022/05/31 12:30:19;;;;;;;0.00;0.00;;;18.60;61.00;;;;;;4209948;28;20164;-65
2022/05/31 12:32:43;;;;;;;;;;;18.60;61.80;;;;;;4210703;28;20447;-65
2022/05/31 12:35:08;;;;;;;0.00;0.00;;;18.60;60.80;;;;;;4208709;28;19927;-65
2022/05/31 12:37:52;;;;;;;0.00;0.00;;;18.60;60.50;;;;;;4209717;28;20051;-65
2022/05/31 12:40:29;;;;;;;0.20;0.20;;;18.60;60.30;;;;;;4210089;28;20094;-65
2022/05/31 12:42:53;;;;;;;0.57;0.57;;;18.60;60.20;;;;;;4192932;28;20056;-64
2022/05/31 12:45:26;;;;;;;0.00;0.00;;;18.70;60.20;;;;;;4191481;28;20044;-65
2022/05/31 12:47:54;;;;;;;0.00;0.00;;;18.70;60.30;;;;;;4196257;28;20102;-64
2022/05/31 12:50:51;;;;;;;0.00;0.00;;;18.60;60.20;;;;;;4176178;28;20388;-64
2022/05/31 12:53:22;;;;;;;0.00;0.00;;;18.60;60.20;;;;;;4176624;28;20128;-64
2022/05/31 12:56:03;;;;;;;0.00;0.00;;;18.60;60.30;;;;;;4176363;28;20048;-64
2022/05/31 12:58:50;;;;;;;0.28;0.20;;;18.60;60.30;;;;;;4191060;28;20136;-65
2022/05/31 13:01:34;;;;;;;0.10;0.10;;;18.60;60.40;;;;;;4192917;28;20135;-65
2022/05/31 13:04:09;;;;;;;0.00;0.00;;;18.60;60.30;;;;;;4197577;28;20055;-65
2022/05/31 13:06:57;;;;;;;0.20;0.20;;;18.60;60.20;;;;;;4208110;28;20467;-65
2022/05/31 13:09:34;;;;;;;0.00;0.00;;;18.60;60.20;;;;;;4193063;28;20056;-64
2022/05/31 13:20:19;;;;;;;0.05;0.05;;;18.60;60.00;;;;;;4192441;28;20511;-64
2022/05/31 13:22:47;;;;;;;0.00;0.00;;;18.60;60.00;;;;;;4192511;28;20056;-66
2022/05/31 13:25:17;;;;;;;0.20;0.20;;;18.60;59.90;;;;;;4192789;28;20098;-64
2022/05/31 13:27:39;;;;;;;0.00;0.00;;;18.60;60.00;;;;;;4203002;28;20048;-63
2022/05/31 13:30:10;;;;;;;0.00;0.00;;;18.50;60.10;;;;;;4209452;28;20059;-63
2022/05/31 13:32:35;;;;;;;0.00;0.00;;;18.50;60.10;;;;;;4208981;28;20044;-64